Terminal Aerodrome Forecast
Issued by NWS Wilmington, NC

Home | Current Version | Previous Version | Text Only | Print | Product List | Glossary On
Versions: 1 2 3 4 5 6 7 8 9 10 11 12 13 14
000
FTUS42 KILM 201300 AAA
TAFILM
TAF AMD
KILM 201347Z 2014/2112 04009KT P6SM VCSH SCT040 BKN250
     FM201600 05011G18KT P6SM VCSH SCT030 OVC250
     FM201800 05010G17KT P6SM VCSH BKN020 BKN100
     FM201900 05009G16KT P6SM OVC020
      TEMPO 2019/2021 P6SM -RA OVC050
     FM202100 05009KT P6SM VCSH SCT020 BKN100=

USA.gov is the U.S. government's official web portal to all federal, state and local government web resources and services.